Gaz Unity — HOEJ — position and weather

sailwx.info

Track history (hours):
 
Tides and Currents Weather Stations Pressure Air Temp Water Temp Dewpoint Dewpoint Depression Visibility Wind Speed Wind Dir Waves Ship Positions

Gaz Unity

Last reported at 2016-Feb-08 15:29 UTC. Time now 2016-Feb-10 22:12 UTC.
Position N 35°56' E 014°52'.

Length 228 m; draft 11 m.

Type: Ship (hazmat cat C). MMSI: 353956000.

Date/timePositionNaut miles runAvg speedWind from/ knotsBaromVisibWave heightAir tempDewpointWater temp
2016-Feb-08 15:29N 35°56' E 014°52'0 0.0
2016-Feb-08 11:16N 35°56' E 014°53'0 0.0
2016-Feb-08 04:13N 35°56' E 014°52'0 0.0
2016-Feb-07 22:28N 35°56' E 014°52'0 0.0
2016-Feb-07 06:22N 35°56' E 014°52'0 0.0
2016-Feb-07 05:31N 35°56' E 014°52'0 0.0
2016-Feb-07 04:31N 35°56' E 014°52'0 0.0
2016-Feb-07 03:10N 35°56' E 014°52'0 0.0
2016-Feb-07 02:31N 35°56' E 014°52'7 0.5
2016-Feb-06 12:33N 35°55' E 014°43'4 3.8
2016-Feb-06 11:33N 35°55' E 014°39'1 1.0
2016-Feb-06 10:33N 35°56' E 014°39'1 1.1
2016-Feb-06 09:33N 35°57' E 014°39'6 6.0
2016-Feb-06 08:33N 35°58' E 014°46'8 7.6
2016-Feb-06 07:29N 35°55' E 014°55'  
2016-Jan-30 16:21N 35°37' E 015°01'  
Track history (hours):
 
Tides and Currents Weather Stations Pressure Air Temp Water Temp Dewpoint Dewpoint Depression Visibility Wind Speed Wind Dir Waves Ship Positions

Gaz Unity

Last reported at 2016-Feb-08 15:29 UTC. Time now 2016-Feb-10 22:12 UTC.
Position N 35°56' E 014°52'.

Length 228 m; draft 11 m.

Type: Ship (hazmat cat C). MMSI: 353956000.

Date/timePositionNaut miles runAvg speedWind from/ knotsBaromVisibWave heightAir tempDewpointWater temp
2016-Feb-08 15:29N 35°56' E 014°52'0 0.0
2016-Feb-08 11:16N 35°56' E 014°53'0 0.0
2016-Feb-08 04:13N 35°56' E 014°52'0 0.0
2016-Feb-07 22:28N 35°56' E 014°52'0 0.0
2016-Feb-07 06:22N 35°56' E 014°52'0 0.0
2016-Feb-07 05:31N 35°56' E 014°52'0 0.0
2016-Feb-07 04:31N 35°56' E 014°52'0 0.0
2016-Feb-07 03:10N 35°56' E 014°52'0 0.0
2016-Feb-07 02:31N 35°56' E 014°52'7 0.5
2016-Feb-06 12:33N 35°55' E 014°43'4 3.8
2016-Feb-06 11:33N 35°55' E 014°39'1 1.0
2016-Feb-06 10:33N 35°56' E 014°39'1 1.1
2016-Feb-06 09:33N 35°57' E 014°39'6 6.0
2016-Feb-06 08:33N 35°58' E 014°46'8 7.6
2016-Feb-06 07:29N 35°55' E 014°55'  
2016-Jan-30 16:21N 35°37' E 015°01'  

Dump ship's entire track history